sensor_id;sensor_type;location;lat;lon;timestamp;temperature;humidity
52189;DHT22;38162;45.926;13.608;2024-01-11T00:00:31;2.00;95.20
52189;DHT22;38162;45.926;13.608;2024-01-11T00:02:57;1.70;93.70
52189;DHT22;38162;45.926;13.608;2024-01-11T00:05:22;1.80;93.70
52189;DHT22;38162;45.926;13.608;2024-01-11T00:10:15;1.40;96.60
52189;DHT22;38162;45.926;13.608;2024-01-11T00:12:41;1.80;95.20
52189;DHT22;38162;45.926;13.608;2024-01-11T00:29:45;1.60;74.20
52189;DHT22;38162;45.926;13.608;2024-01-11T00:32:10;1.70;74.50
52189;DHT22;38162;45.926;13.608;2024-01-11T00:34:36;1.60;74.50
52189;DHT22;38162;45.926;13.608;2024-01-11T00:37:02;1.60;74.80
52189;DHT22;38162;45.926;13.608;2024-01-11T00:39:28;1.60;76.60
52189;DHT22;38162;45.926;13.608;2024-01-11T00:41:55;1.60;75.90
52189;DHT22;38162;45.926;13.608;2024-01-11T00:44:21;1.50;76.60
52189;DHT22;38162;45.926;13.608;2024-01-11T00:46:46;1.50;75.60
52189;DHT22;38162;45.926;13.608;2024-01-11T00:49:12;1.50;76.60
52189;DHT22;38162;45.926;13.608;2024-01-11T00:51:38;1.50;76.30
52189;DHT22;38162;45.926;13.608;2024-01-11T00:54:04;1.50;76.10
52189;DHT22;38162;45.926;13.608;2024-01-11T00:56:29;1.50;75.70
52189;DHT22;38162;45.926;13.608;2024-01-11T00:58:55;1.50;75.40
52189;DHT22;38162;45.926;13.608;2024-01-11T01:01:21;1.40;75.30
52189;DHT22;38162;45.926;13.608;2024-01-11T01:03:47;1.50;76.20
52189;DHT22;38162;45.926;13.608;2024-01-11T01:06:12;1.50;76.70
52189;DHT22;38162;45.926;13.608;2024-01-11T01:08:38;1.40;74.70
52189;DHT22;38162;45.926;13.608;2024-01-11T01:11:04;1.40;75.60
52189;DHT22;38162;45.926;13.608;2024-01-11T01:13:30;1.40;76.20
52189;DHT22;38162;45.926;13.608;2024-01-11T01:15:56;1.40;75.40
52189;DHT22;38162;45.926;13.608;2024-01-11T01:18:21;1.40;75.10
52189;DHT22;38162;45.926;13.608;2024-01-11T01:20:47;1.40;75.00
52189;DHT22;38162;45.926;13.608;2024-01-11T01:23:13;1.30;77.10
52189;DHT22;38162;45.926;13.608;2024-01-11T01:25:39;1.30;77.50
52189;DHT22;38162;45.926;13.608;2024-01-11T01:28:05;1.30;76.80
52189;DHT22;38162;45.926;13.608;2024-01-11T01:30:30;1.20;77.80
52189;DHT22;38162;45.926;13.608;2024-01-11T01:32:56;1.20;76.90
52189;DHT22;38162;45.926;13.608;2024-01-11T01:35:22;1.20;76.40
52189;DHT22;38162;45.926;13.608;2024-01-11T01:37:48;1.10;78.00
52189;DHT22;38162;45.926;13.608;2024-01-11T01:40:13;1.10;78.90
52189;DHT22;38162;45.926;13.608;2024-01-11T01:42:43;1.10;79.10
52189;DHT22;38162;45.926;13.608;2024-01-11T01:45:09;1.00;78.00
52189;DHT22;38162;45.926;13.608;2024-01-11T01:47:36;1.00;78.50
52189;DHT22;38162;45.926;13.608;2024-01-11T01:50:02;1.00;78.40
52189;DHT22;38162;45.926;13.608;2024-01-11T01:52:29;1.00;77.90
52189;DHT22;38162;45.926;13.608;2024-01-11T01:54:57;0.90;79.20
52189;DHT22;38162;45.926;13.608;2024-01-11T01:57:23;0.90;79.50
52189;DHT22;38162;45.926;13.608;2024-01-11T01:59:52;0.90;79.80
52189;DHT22;38162;45.926;13.608;2024-01-11T02:02:20;0.90;81.20
52189;DHT22;38162;45.926;13.608;2024-01-11T02:04:47;0.80;81.90
52189;DHT22;38162;45.926;13.608;2024-01-11T02:07:13;0.80;82.10
52189;DHT22;38162;45.926;13.608;2024-01-11T02:09:40;0.80;82.10
52189;DHT22;38162;45.926;13.608;2024-01-11T02:12:06;0.70;81.90
52189;DHT22;38162;45.926;13.608;2024-01-11T02:14:34;0.70;81.80
52189;DHT22;38162;45.926;13.608;2024-01-11T02:17:03;0.70;83.00
52189;DHT22;38162;45.926;13.608;2024-01-11T02:19:28;0.70;83.10
52189;DHT22;38162;45.926;13.608;2024-01-11T02:21:54;0.70;83.50
52189;DHT22;38162;45.926;13.608;2024-01-11T02:24:23;0.60;84.70
52189;DHT22;38162;45.926;13.608;2024-01-11T02:29:25;0.70;85.00
52189;DHT22;38162;45.926;13.608;2024-01-11T02:31:51;0.60;85.00
52189;DHT22;38162;45.926;13.608;2024-01-11T02:34:17;0.60;83.60
52189;DHT22;38162;45.926;13.608;2024-01-11T02:36:43;0.60;83.70
52189;DHT22;38162;45.926;13.608;2024-01-11T02:39:09;0.60;83.20
52189;DHT22;38162;45.926;13.608;2024-01-11T02:41:37;0.60;82.40
52189;DHT22;38162;45.926;13.608;2024-01-11T02:44:03;0.60;82.40
52189;DHT22;38162;45.926;13.608;2024-01-11T02:46:29;0.60;82.40
52189;DHT22;38162;45.926;13.608;2024-01-11T02:48:55;0.60;81.40
52189;DHT22;38162;45.926;13.608;2024-01-11T02:51:21;0.60;81.10
52189;DHT22;38162;45.926;13.608;2024-01-11T02:53:47;0.60;81.20
52189;DHT22;38162;45.926;13.608;2024-01-11T02:56:12;0.60;81.10
52189;DHT22;38162;45.926;13.608;2024-01-11T02:58:38;0.60;81.30
52189;DHT22;38162;45.926;13.608;2024-01-11T03:01:04;0.60;81.30
52189;DHT22;38162;45.926;13.608;2024-01-11T03:03:29;0.60;81.50
52189;DHT22;38162;45.926;13.608;2024-01-11T03:05:55;0.60;80.90
52189;DHT22;38162;45.926;13.608;2024-01-11T03:08:21;0.60;81.00
52189;DHT22;38162;45.926;13.608;2024-01-11T03:10:47;0.60;81.10
52189;DHT22;38162;45.926;13.608;2024-01-11T03:13:12;0.50;81.20
52189;DHT22;38162;45.926;13.608;2024-01-11T03:15:38;0.50;81.20
52189;DHT22;38162;45.926;13.608;2024-01-11T03:18:04;0.40;81.40
52189;DHT22;38162;45.926;13.608;2024-01-11T03:20:30;0.50;81.30
52189;DHT22;38162;45.926;13.608;2024-01-11T03:22:56;0.40;81.40
52189;DHT22;38162;45.926;13.608;2024-01-11T03:25:21;0.40;81.30
52189;DHT22;38162;45.926;13.608;2024-01-11T03:27:47;0.30;81.40
52189;DHT22;38162;45.926;13.608;2024-01-11T03:30:13;0.30;81.80
52189;DHT22;38162;45.926;13.608;2024-01-11T03:32:39;0.30;81.60
52189;DHT22;38162;45.926;13.608;2024-01-11T03:35:08;0.30;81.80
52189;DHT22;38162;45.926;13.608;2024-01-11T03:37:34;0.30;81.90
52189;DHT22;38162;45.926;13.608;2024-01-11T03:40:01;0.30;81.70
52189;DHT22;38162;45.926;13.608;2024-01-11T03:42:27;0.20;81.70
52189;DHT22;38162;45.926;13.608;2024-01-11T03:44:54;0.20;81.90
52189;DHT22;38162;45.926;13.608;2024-01-11T03:47:20;0.20;82.10
52189;DHT22;38162;45.926;13.608;2024-01-11T03:49:45;0.20;82.20
52189;DHT22;38162;45.926;13.608;2024-01-11T03:52:11;0.20;82.40
52189;DHT22;38162;45.926;13.608;2024-01-11T03:54:37;0.30;83.50
52189;DHT22;38162;45.926;13.608;2024-01-11T03:57:03;0.20;83.00
52189;DHT22;38162;45.926;13.608;2024-01-11T03:59:28;0.20;84.10
52189;DHT22;38162;45.926;13.608;2024-01-11T04:01:55;0.20;83.50
52189;DHT22;38162;45.926;13.608;2024-01-11T04:04:21;0.30;84.20
52189;DHT22;38162;45.926;13.608;2024-01-11T04:06:48;0.20;84.30
52189;DHT22;38162;45.926;13.608;2024-01-11T04:09:14;0.20;84.20
52189;DHT22;38162;45.926;13.608;2024-01-11T04:11:39;0.20;84.10
52189;DHT22;38162;45.926;13.608;2024-01-11T04:14:05;0.20;84.20
52189;DHT22;38162;45.926;13.608;2024-01-11T04:16:31;0.20;84.20
52189;DHT22;38162;45.926;13.608;2024-01-11T04:18:57;0.20;84.80
52189;DHT22;38162;45.926;13.608;2024-01-11T04:21:24;0.20;86.00
52189;DHT22;38162;45.926;13.608;2024-01-11T04:23:50;0.10;85.90
52189;DHT22;38162;45.926;13.608;2024-01-11T04:26:17;0.10;85.90
52189;DHT22;38162;45.926;13.608;2024-01-11T04:28:44;0.10;86.10
52189;DHT22;38162;45.926;13.608;2024-01-11T04:31:10;0.10;86.10
52189;DHT22;38162;45.926;13.608;2024-01-11T04:33:40;0.10;87.10
52189;DHT22;38162;45.926;13.608;2024-01-11T04:36:06;0.10;86.10
52189;DHT22;38162;45.926;13.608;2024-01-11T04:38:31;0.10;87.00
52189;DHT22;38162;45.926;13.608;2024-01-11T04:40:57;0.10;87.70
52189;DHT22;38162;45.926;13.608;2024-01-11T04:43:23;0.10;86.70
52189;DHT22;38162;45.926;13.608;2024-01-11T04:45:48;0.10;86.60
52189;DHT22;38162;45.926;13.608;2024-01-11T04:48:14;0.10;86.90
52189;DHT22;38162;45.926;13.608;2024-01-11T04:50:40;0.10;87.80
52189;DHT22;38162;45.926;13.608;2024-01-11T04:53:06;0.10;86.80
52189;DHT22;38162;45.926;13.608;2024-01-11T04:55:32;0.10;87.90
52189;DHT22;38162;45.926;13.608;2024-01-11T04:57:58;0.10;87.90
52189;DHT22;38162;45.926;13.608;2024-01-11T05:00:24;0.10;87.60
52189;DHT22;38162;45.926;13.608;2024-01-11T05:02:49;0.00;87.30
52189;DHT22;38162;45.926;13.608;2024-01-11T05:05:15;0.10;86.80
52189;DHT22;38162;45.926;13.608;2024-01-11T05:07:41;0.00;85.90
52189;DHT22;38162;45.926;13.608;2024-01-11T05:10:07;0.00;85.40
52189;DHT22;38162;45.926;13.608;2024-01-11T05:12:33;0.00;85.50
52189;DHT22;38162;45.926;13.608;2024-01-11T05:14:59;0.00;85.60
52189;DHT22;38162;45.926;13.608;2024-01-11T05:17:26;-0.10;85.40
52189;DHT22;38162;45.926;13.608;2024-01-11T05:19:51;-0.10;85.40
52189;DHT22;38162;45.926;13.608;2024-01-11T05:22:18;-0.10;85.40
52189;DHT22;38162;45.926;13.608;2024-01-11T05:24:43;-0.10;86.20
52189;DHT22;38162;45.926;13.608;2024-01-11T05:27:09;-0.20;86.00
52189;DHT22;38162;45.926;13.608;2024-01-11T05:29:35;-0.20;85.50
52189;DHT22;38162;45.926;13.608;2024-01-11T05:32:00;-0.20;86.10
52189;DHT22;38162;45.926;13.608;2024-01-11T05:34:26;-0.20;86.30
52189;DHT22;38162;45.926;13.608;2024-01-11T05:36:52;-0.20;86.50
52189;DHT22;38162;45.926;13.608;2024-01-11T05:39:18;-0.30;87.30
52189;DHT22;38162;45.926;13.608;2024-01-11T05:41:44;-0.30;87.60
52189;DHT22;38162;45.926;13.608;2024-01-11T05:44:10;-0.30;87.20
52189;DHT22;38162;45.926;13.608;2024-01-11T05:46:36;-0.40;87.30
52189;DHT22;38162;45.926;13.608;2024-01-11T05:49:02;-0.30;88.50
52189;DHT22;38162;45.926;13.608;2024-01-11T05:51:29;-0.40;88.30
52189;DHT22;38162;45.926;13.608;2024-01-11T05:53:54;-0.40;88.60
52189;DHT22;38162;45.926;13.608;2024-01-11T05:56:20;-0.40;88.70
52189;DHT22;38162;45.926;13.608;2024-01-11T05:58:46;-0.40;89.50
52189;DHT22;38162;45.926;13.608;2024-01-11T06:01:12;-0.40;89.80
52189;DHT22;38162;45.926;13.608;2024-01-11T06:03:38;-0.40;89.80
52189;DHT22;38162;45.926;13.608;2024-01-11T06:06:05;-0.40;90.10
52189;DHT22;38162;45.926;13.608;2024-01-11T06:08:31;-0.40;90.10
52189;DHT22;38162;45.926;13.608;2024-01-11T06:10:57;-0.30;90.00
52189;DHT22;38162;45.926;13.608;2024-01-11T06:13:23;-0.30;90.00
52189;DHT22;38162;45.926;13.608;2024-01-11T06:15:49;-0.30;89.60
52189;DHT22;38162;45.926;13.608;2024-01-11T06:18:16;-0.30;90.00
52189;DHT22;38162;45.926;13.608;2024-01-11T06:20:42;-0.40;90.00
52189;DHT22;38162;45.926;13.608;2024-01-11T06:23:07;-0.40;89.50
52189;DHT22;38162;45.926;13.608;2024-01-11T06:25:33;-0.40;89.50
52189;DHT22;38162;45.926;13.608;2024-01-11T06:27:59;-0.40;90.30
52189;DHT22;38162;45.926;13.608;2024-01-11T06:30:25;-0.40;90.20
52189;DHT22;38162;45.926;13.608;2024-01-11T06:32:51;-0.40;90.10
52189;DHT22;38162;45.926;13.608;2024-01-11T06:35:16;-0.50;90.10
52189;DHT22;38162;45.926;13.608;2024-01-11T06:37:43;-0.40;90.10
52189;DHT22;38162;45.926;13.608;2024-01-11T06:40:09;-0.50;89.60
52189;DHT22;38162;45.926;13.608;2024-01-11T06:42:35;-0.40;89.30
52189;DHT22;38162;45.926;13.608;2024-01-11T06:45:00;-0.40;89.10
52189;DHT22;38162;45.926;13.608;2024-01-11T06:47:26;-0.50;89.20
52189;DHT22;38162;45.926;13.608;2024-01-11T06:49:53;-0.50;89.50
52189;DHT22;38162;45.926;13.608;2024-01-11T06:52:19;-0.60;89.80
52189;DHT22;38162;45.926;13.608;2024-01-11T06:54:45;-0.60;90.20
52189;DHT22;38162;45.926;13.608;2024-01-11T06:57:11;-0.60;90.50
52189;DHT22;38162;45.926;13.608;2024-01-11T06:59:36;-0.60;90.50
52189;DHT22;38162;45.926;13.608;2024-01-11T07:02:03;-0.60;91.10
52189;DHT22;38162;45.926;13.608;2024-01-11T07:04:29;-0.60;91.40
52189;DHT22;38162;45.926;13.608;2024-01-11T07:06:55;-0.60;91.30
52189;DHT22;38162;45.926;13.608;2024-01-11T07:09:20;-0.60;91.20
52189;DHT22;38162;45.926;13.608;2024-01-11T07:11:46;-0.60;91.40
52189;DHT22;38162;45.926;13.608;2024-01-11T07:14:12;-0.50;91.50
52189;DHT22;38162;45.926;13.608;2024-01-11T07:16:38;-0.50;91.70
52189;DHT22;38162;45.926;13.608;2024-01-11T07:19:04;-0.50;92.00
52189;DHT22;38162;45.926;13.608;2024-01-11T07:21:29;-0.50;91.80
52189;DHT22;38162;45.926;13.608;2024-01-11T07:23:59;-0.40;92.00
52189;DHT22;38162;45.926;13.608;2024-01-11T07:26:25;-0.40;91.90
52189;DHT22;38162;45.926;13.608;2024-01-11T07:28:53;-0.30;91.70
52189;DHT22;38162;45.926;13.608;2024-01-11T07:31:20;-0.30;91.40
52189;DHT22;38162;45.926;13.608;2024-01-11T07:33:46;-0.30;91.40
52189;DHT22;38162;45.926;13.608;2024-01-11T07:36:12;-0.20;91.40
52189;DHT22;38162;45.926;13.608;2024-01-11T07:38:38;-0.20;91.60
52189;DHT22;38162;45.926;13.608;2024-01-11T07:41:04;-0.20;91.80
52189;DHT22;38162;45.926;13.608;2024-01-11T07:43:29;-0.10;92.40
52189;DHT22;38162;45.926;13.608;2024-01-11T07:45:56;-0.10;92.10
52189;DHT22;38162;45.926;13.608;2024-01-11T07:48:22;0.00;92.00
52189;DHT22;38162;45.926;13.608;2024-01-11T07:50:48;0.00;92.50
52189;DHT22;38162;45.926;13.608;2024-01-11T07:53:14;0.10;93.10
52189;DHT22;38162;45.926;13.608;2024-01-11T07:55:40;0.10;93.40
52189;DHT22;38162;45.926;13.608;2024-01-11T07:58:07;0.20;93.50
52189;DHT22;38162;45.926;13.608;2024-01-11T08:00:33;0.30;93.70
52189;DHT22;38162;45.926;13.608;2024-01-11T08:02:59;0.40;93.80
52189;DHT22;38162;45.926;13.608;2024-01-11T08:05:26;0.50;93.60
52189;DHT22;38162;45.926;13.608;2024-01-11T08:07:51;0.50;93.50
52189;DHT22;38162;45.926;13.608;2024-01-11T08:10:17;0.60;93.10
52189;DHT22;38162;45.926;13.608;2024-01-11T08:12:43;0.70;92.90
52189;DHT22;38162;45.926;13.608;2024-01-11T08:15:09;0.80;92.60
52189;DHT22;38162;45.926;13.608;2024-01-11T08:17:47;0.90;92.30
52189;DHT22;38162;45.926;13.608;2024-01-11T08:20:13;1.00;92.30
52189;DHT22;38162;45.926;13.608;2024-01-11T08:22:40;1.00;92.10
52189;DHT22;38162;45.926;13.608;2024-01-11T08:25:06;1.10;92.40
52189;DHT22;38162;45.926;13.608;2024-01-11T08:27:32;1.20;92.40
52189;DHT22;38162;45.926;13.608;2024-01-11T08:29:59;1.20;92.10
52189;DHT22;38162;45.926;13.608;2024-01-11T08:32:28;1.30;92.10
52189;DHT22;38162;45.926;13.608;2024-01-11T08:34:54;1.40;92.00
52189;DHT22;38162;45.926;13.608;2024-01-11T08:37:20;1.40;92.00
52189;DHT22;38162;45.926;13.608;2024-01-11T08:39:45;1.50;92.00
52189;DHT22;38162;45.926;13.608;2024-01-11T08:42:12;1.50;91.70
52189;DHT22;38162;45.926;13.608;2024-01-11T08:44:45;1.60;91.50
52189;DHT22;38162;45.926;13.608;2024-01-11T08:47:10;1.60;91.20
52189;DHT22;38162;45.926;13.608;2024-01-11T08:49:38;1.70;91.00
52189;DHT22;38162;45.926;13.608;2024-01-11T08:52:05;1.80;91.10
52189;DHT22;38162;45.926;13.608;2024-01-11T08:54:31;1.80;91.00
52189;DHT22;38162;45.926;13.608;2024-01-11T08:56:58;1.90;90.80
52189;DHT22;38162;45.926;13.608;2024-01-11T08:59:24;1.90;91.10
52189;DHT22;38162;45.926;13.608;2024-01-11T09:01:52;1.90;90.70
52189;DHT22;38162;45.926;13.608;2024-01-11T09:04:18;1.90;90.50
52189;DHT22;38162;45.926;13.608;2024-01-11T09:06:44;2.00;90.20
52189;DHT22;38162;45.926;13.608;2024-01-11T09:09:11;2.00;90.70
52189;DHT22;38162;45.926;13.608;2024-01-11T09:11:39;2.00;90.90
52189;DHT22;38162;45.926;13.608;2024-01-11T09:14:08;2.10;90.30
52189;DHT22;38162;45.926;13.608;2024-01-11T09:16:36;2.10;90.40
52189;DHT22;38162;45.926;13.608;2024-01-11T09:19:02;2.20;90.40
52189;DHT22;38162;45.926;13.608;2024-01-11T09:21:28;2.20;90.40
52189;DHT22;38162;45.926;13.608;2024-01-11T09:23:54;2.20;90.30
52189;DHT22;38162;45.926;13.608;2024-01-11T09:26:20;2.30;90.00
52189;DHT22;38162;45.926;13.608;2024-01-11T09:31:14;2.40;88.80
52189;DHT22;38162;45.926;13.608;2024-01-11T09:33:39;2.40;88.60
52189;DHT22;38162;45.926;13.608;2024-01-11T09:36:07;2.60;88.10
52189;DHT22;38162;45.926;13.608;2024-01-11T09:43:35;2.80;86.00
52189;DHT22;38162;45.926;13.608;2024-01-11T09:46:05;2.80;84.50
52189;DHT22;38162;45.926;13.608;2024-01-11T09:48:35;2.90;84.30
52189;DHT22;38162;45.926;13.608;2024-01-11T09:51:08;3.00;83.90
52189;DHT22;38162;45.926;13.608;2024-01-11T09:56:08;3.10;83.10
52189;DHT22;38162;45.926;13.608;2024-01-11T09:58:35;3.10;83.00
52189;DHT22;38162;45.926;13.608;2024-01-11T10:01:09;3.20;82.80
52189;DHT22;38162;45.926;13.608;2024-01-11T10:03:35;3.30;82.00
52189;DHT22;38162;45.926;13.608;2024-01-11T10:06:01;3.30;80.60
52189;DHT22;38162;45.926;13.608;2024-01-11T10:08:27;3.40;80.40
52189;DHT22;38162;45.926;13.608;2024-01-11T10:10:56;3.40;80.50
52189;DHT22;38162;45.926;13.608;2024-01-11T10:13:27;3.50;79.80
52189;DHT22;38162;45.926;13.608;2024-01-11T10:16:05;3.50;79.20
52189;DHT22;38162;45.926;13.608;2024-01-11T10:18:32;3.60;79.20
52189;DHT22;38162;45.926;13.608;2024-01-11T10:20:57;3.70;78.10
52189;DHT22;38162;45.926;13.608;2024-01-11T10:23:23;3.80;77.50
52189;DHT22;38162;45.926;13.608;2024-01-11T10:25:49;3.90;76.60
52189;DHT22;38162;45.926;13.608;2024-01-11T10:28:15;3.90;75.90
52189;DHT22;38162;45.926;13.608;2024-01-11T10:30:41;4.00;75.70
52189;DHT22;38162;45.926;13.608;2024-01-11T10:33:10;4.10;75.00
52189;DHT22;38162;45.926;13.608;2024-01-11T10:35:36;4.10;73.70
52189;DHT22;38162;45.926;13.608;2024-01-11T10:38:07;4.20;72.60
52189;DHT22;38162;45.926;13.608;2024-01-11T10:43:02;4.30;70.80
52189;DHT22;38162;45.926;13.608;2024-01-11T10:45:31;4.40;69.90
52189;DHT22;38162;45.926;13.608;2024-01-11T10:48:13;4.50;68.50
52189;DHT22;38162;45.926;13.608;2024-01-11T10:50:43;4.50;68.40
52189;DHT22;38162;45.926;13.608;2024-01-11T10:55:39;4.70;66.90
52189;DHT22;38162;45.926;13.608;2024-01-11T10:58:06;4.80;66.50
52189;DHT22;38162;45.926;13.608;2024-01-11T11:00:34;4.90;66.50
52189;DHT22;38162;45.926;13.608;2024-01-11T11:03:01;5.00;66.00
52189;DHT22;38162;45.926;13.608;2024-01-11T11:07:56;5.10;64.80
52189;DHT22;38162;45.926;13.608;2024-01-11T11:10:22;5.20;63.80
52189;DHT22;38162;45.926;13.608;2024-01-11T11:12:48;5.30;62.90
52189;DHT22;38162;45.926;13.608;2024-01-11T11:30:03;5.40;63.40
52189;DHT22;38162;45.926;13.608;2024-01-11T11:32:43;5.80;61.20
52189;DHT22;38162;45.926;13.608;2024-01-11T11:35:09;5.80;60.30
52189;DHT22;38162;45.926;13.608;2024-01-11T11:37:39;5.90;60.60
52189;DHT22;38162;45.926;13.608;2024-01-11T11:40:09;6.00;59.90
52189;DHT22;38162;45.926;13.608;2024-01-11T11:42:36;6.00;59.90
52189;DHT22;38162;45.926;13.608;2024-01-11T11:45:03;6.10;60.90
52189;DHT22;38162;45.926;13.608;2024-01-11T11:47:34;6.10;60.90
52189;DHT22;38162;45.926;13.608;2024-01-11T11:50:08;6.20;60.30
52189;DHT22;38162;45.926;13.608;2024-01-11T11:52:38;6.30;60.30
52189;DHT22;38162;45.926;13.608;2024-01-11T11:55:06;6.30;59.70
52189;DHT22;38162;45.926;13.608;2024-01-11T12:07:21;6.30;59.90
52189;DHT22;38162;45.926;13.608;2024-01-11T12:09:48;6.60;57.20
52189;DHT22;38162;45.926;13.608;2024-01-11T12:12:14;6.70;57.10
52189;DHT22;38162;45.926;13.608;2024-01-11T12:14:41;6.70;57.30
52189;DHT22;38162;45.926;13.608;2024-01-11T12:17:08;6.80;57.20
52189;DHT22;38162;45.926;13.608;2024-01-11T12:19:34;6.80;56.70
52189;DHT22;38162;45.926;13.608;2024-01-11T12:22:00;6.80;56.70
52189;DHT22;38162;45.926;13.608;2024-01-11T12:24:25;6.80;56.10
52189;DHT22;38162;45.926;13.608;2024-01-11T12:26:52;6.90;56.30
52189;DHT22;38162;45.926;13.608;2024-01-11T12:29:19;6.90;56.30
52189;DHT22;38162;45.926;13.608;2024-01-11T12:31:45;6.90;56.50
52189;DHT22;38162;45.926;13.608;2024-01-11T12:34:14;7.00;56.60
52189;DHT22;38162;45.926;13.608;2024-01-11T12:39:08;7.00;56.30
52189;DHT22;38162;45.926;13.608;2024-01-11T12:41:35;7.10;55.80
52189;DHT22;38162;45.926;13.608;2024-01-11T12:44:02;7.10;55.70
52189;DHT22;38162;45.926;13.608;2024-01-11T12:46:28;7.10;54.80
52189;DHT22;38162;45.926;13.608;2024-01-11T12:48:54;7.10;54.70
52189;DHT22;38162;45.926;13.608;2024-01-11T12:51:20;7.20;55.10
52189;DHT22;38162;45.926;13.608;2024-01-11T12:56:15;7.20;55.80
52189;DHT22;38162;45.926;13.608;2024-01-11T13:01:08;7.20;54.50
52189;DHT22;38162;45.926;13.608;2024-01-11T13:06:02;7.30;53.70
52189;DHT22;38162;45.926;13.608;2024-01-11T13:32:59;7.30;55.60
52189;DHT22;38162;45.926;13.608;2024-01-11T13:57:20;7.40;52.30
52189;DHT22;38162;45.926;13.608;2024-01-11T13:59:46;7.30;50.20
52189;DHT22;38162;45.926;13.608;2024-01-11T14:02:13;7.30;49.90
52189;DHT22;38162;45.926;13.608;2024-01-11T14:04:38;7.30;50.30
52189;DHT22;38162;45.926;13.608;2024-01-11T14:07:05;7.30;50.40
52189;DHT22;38162;45.926;13.608;2024-01-11T14:09:31;7.30;51.10
52189;DHT22;38162;45.926;13.608;2024-01-11T14:14:23;7.30;50.80
52189;DHT22;38162;45.926;13.608;2024-01-11T14:19:17;7.20;51.00
52189;DHT22;38162;45.926;13.608;2024-01-11T14:21:42;7.20;51.10
52189;DHT22;38162;45.926;13.608;2024-01-11T14:24:08;7.20;51.00
52189;DHT22;38162;45.926;13.608;2024-01-11T14:26:34;7.20;51.40
52189;DHT22;38162;45.926;13.608;2024-01-11T14:29:00;7.20;52.50
52189;DHT22;38162;45.926;13.608;2024-01-11T14:31:29;7.20;53.30
52189;DHT22;38162;45.926;13.608;2024-01-11T14:41:13;7.20;52.70
52189;DHT22;38162;45.926;13.608;2024-01-11T14:43:39;7.10;52.80
52189;DHT22;38162;45.926;13.608;2024-01-11T14:46:05;7.10;53.10
52189;DHT22;38162;45.926;13.608;2024-01-11T14:48:31;7.10;52.70
52189;DHT22;38162;45.926;13.608;2024-01-11T14:53:23;7.10;52.70
52189;DHT22;38162;45.926;13.608;2024-01-11T14:55:49;7.00;52.40
52189;DHT22;38162;45.926;13.608;2024-01-11T14:58:15;7.00;52.10
52189;DHT22;38162;45.926;13.608;2024-01-11T15:00:42;7.00;52.30
52189;DHT22;38162;45.926;13.608;2024-01-11T15:03:08;6.90;51.70
52189;DHT22;38162;45.926;13.608;2024-01-11T15:05:34;6.90;51.70
52189;DHT22;38162;45.926;13.608;2024-01-11T15:08:01;6.90;51.80
52189;DHT22;38162;45.926;13.608;2024-01-11T15:10:28;6.80;51.70
52189;DHT22;38162;45.926;13.608;2024-01-11T15:12:53;6.80;51.80
52189;DHT22;38162;45.926;13.608;2024-01-11T15:15:19;6.80;51.60
52189;DHT22;38162;45.926;13.608;2024-01-11T15:17:45;6.80;51.40
52189;DHT22;38162;45.926;13.608;2024-01-11T15:20:12;6.80;51.50
52189;DHT22;38162;45.926;13.608;2024-01-11T15:22:38;6.70;51.30
52189;DHT22;38162;45.926;13.608;2024-01-11T15:25:04;6.70;51.20
52189;DHT22;38162;45.926;13.608;2024-01-11T15:47:04;6.70;51.10
52189;DHT22;38162;45.926;13.608;2024-01-11T15:49:29;6.40;54.00
52189;DHT22;38162;45.926;13.608;2024-01-11T16:08:58;6.40;54.50
52189;DHT22;38162;45.926;13.608;2024-01-11T16:11:24;6.00;54.60
52189;DHT22;38162;45.926;13.608;2024-01-11T16:13:50;6.00;55.30
52189;DHT22;38162;45.926;13.608;2024-01-11T16:16:16;5.90;55.90
52189;DHT22;38162;45.926;13.608;2024-01-11T16:18:42;5.90;56.20
52189;DHT22;38162;45.926;13.608;2024-01-11T16:21:08;5.90;56.30
52189;DHT22;38162;45.926;13.608;2024-01-11T16:26:00;5.80;57.10
52189;DHT22;38162;45.926;13.608;2024-01-11T16:28:26;5.80;57.90
52189;DHT22;38162;45.926;13.608;2024-01-11T16:30:52;5.70;58.30
52189;DHT22;38162;45.926;13.608;2024-01-11T16:33:19;5.60;58.80
52189;DHT22;38162;45.926;13.608;2024-01-11T16:35:45;5.60;59.90
52189;DHT22;38162;45.926;13.608;2024-01-11T16:38:12;5.60;59.50
52189;DHT22;38162;45.926;13.608;2024-01-11T16:40:40;5.50;59.80
52189;DHT22;38162;45.926;13.608;2024-01-11T16:43:07;5.50;60.00
52189;DHT22;38162;45.926;13.608;2024-01-11T16:45:36;5.40;60.30
52189;DHT22;38162;45.926;13.608;2024-01-11T16:48:03;5.40;60.40
52189;DHT22;38162;45.926;13.608;2024-01-11T16:50:38;5.30;60.60
52189;DHT22;38162;45.926;13.608;2024-01-11T16:53:04;5.30;61.00
52189;DHT22;38162;45.926;13.608;2024-01-11T16:55:30;5.20;61.10
52189;DHT22;38162;45.926;13.608;2024-01-11T16:57:56;5.20;61.90
52189;DHT22;38162;45.926;13.608;2024-01-11T17:00:21;5.10;61.90
52189;DHT22;38162;45.926;13.608;2024-01-11T17:02:47;5.10;62.10
52189;DHT22;38162;45.926;13.608;2024-01-11T17:05:13;5.10;62.80
52189;DHT22;38162;45.926;13.608;2024-01-11T17:07:39;5.00;62.80
52189;DHT22;38162;45.926;13.608;2024-01-11T17:10:05;5.00;63.10
52189;DHT22;38162;45.926;13.608;2024-01-11T17:12:31;5.00;64.00
52189;DHT22;38162;45.926;13.608;2024-01-11T17:14:57;4.90;63.80
52189;DHT22;38162;45.926;13.608;2024-01-11T17:17:22;4.90;63.90
52189;DHT22;38162;45.926;13.608;2024-01-11T17:19:48;4.90;63.80
52189;DHT22;38162;45.926;13.608;2024-01-11T17:22:14;4.90;64.50
52189;DHT22;38162;45.926;13.608;2024-01-11T17:24:41;4.80;64.20
52189;DHT22;38162;45.926;13.608;2024-01-11T17:27:07;4.80;64.30
52189;DHT22;38162;45.926;13.608;2024-01-11T17:29:37;4.80;64.30
52189;DHT22;38162;45.926;13.608;2024-01-11T17:32:06;4.80;64.20
52189;DHT22;38162;45.926;13.608;2024-01-11T17:34:32;4.70;64.20
52189;DHT22;38162;45.926;13.608;2024-01-11T17:36:58;4.70;64.00
52189;DHT22;38162;45.926;13.608;2024-01-11T17:39:23;4.70;64.50
52189;DHT22;38162;45.926;13.608;2024-01-11T17:41:50;4.70;64.50
52189;DHT22;38162;45.926;13.608;2024-01-11T17:44:15;4.60;64.60
52189;DHT22;38162;45.926;13.608;2024-01-11T17:46:41;4.60;64.60
52189;DHT22;38162;45.926;13.608;2024-01-11T17:49:10;4.70;64.90
52189;DHT22;38162;45.926;13.608;2024-01-11T17:51:36;4.60;64.60
52189;DHT22;38162;45.926;13.608;2024-01-11T17:54:02;4.60;65.10
52189;DHT22;38162;45.926;13.608;2024-01-11T17:56:29;4.60;64.80
52189;DHT22;38162;45.926;13.608;2024-01-11T17:58:54;4.60;65.10
52189;DHT22;38162;45.926;13.608;2024-01-11T18:01:25;4.60;65.00
52189;DHT22;38162;45.926;13.608;2024-01-11T18:03:51;4.60;65.60
52189;DHT22;38162;45.926;13.608;2024-01-11T18:06:17;4.60;65.10
52189;DHT22;38162;45.926;13.608;2024-01-11T18:08:43;4.60;65.10
52189;DHT22;38162;45.926;13.608;2024-01-11T18:11:12;4.50;65.20
52189;DHT22;38162;45.926;13.608;2024-01-11T18:13:38;4.50;65.00